sensor_id;sensor_type;location;lat;lon;timestamp;P1;durP1;ratioP1;P2;durP2;ratioP2
20970;SDS011;10644;48.834;10.088;2023-06-24T00:01:35;10.20;;;6.43;;
20970;SDS011;10644;48.834;10.088;2023-06-24T00:04:03;9.30;;;5.83;;
20970;SDS011;10644;48.834;10.088;2023-06-24T00:06:29;11.37;;;7.07;;
20970;SDS011;10644;48.834;10.088;2023-06-24T00:08:54;7.90;;;6.73;;
20970;SDS011;10644;48.834;10.088;2023-06-24T00:11:28;15.50;;;7.30;;
20970;SDS011;10644;48.834;10.088;2023-06-24T00:13:55;7.13;;;5.73;;
20970;SDS011;10644;48.834;10.088;2023-06-24T00:16:20;19.60;;;7.10;;
20970;SDS011;10644;48.834;10.088;2023-06-24T00:18:52;6.97;;;5.20;;
20970;SDS011;10644;48.834;10.088;2023-06-24T00:21:25;28.83;;;7.70;;
20970;SDS011;10644;48.834;10.088;2023-06-24T00:24:00;7.30;;;5.10;;
20970;SDS011;10644;48.834;10.088;2023-06-24T00:26:31;10.57;;;6.00;;
20970;SDS011;10644;48.834;10.088;2023-06-24T00:28:58;8.30;;;5.50;;
20970;SDS011;10644;48.834;10.088;2023-06-24T00:31:23;12.23;;;6.07;;
20970;SDS011;10644;48.834;10.088;2023-06-24T00:33:49;7.67;;;4.90;;
20970;SDS011;10644;48.834;10.088;2023-06-24T00:36:14;8.83;;;5.40;;
20970;SDS011;10644;48.834;10.088;2023-06-24T00:38:40;7.87;;;5.50;;
20970;SDS011;10644;48.834;10.088;2023-06-24T00:41:07;8.53;;;5.03;;
20970;SDS011;10644;48.834;10.088;2023-06-24T00:43:33;6.57;;;5.87;;
20970;SDS011;10644;48.834;10.088;2023-06-24T00:45:59;6.23;;;5.37;;
20970;SDS011;10644;48.834;10.088;2023-06-24T00:48:25;6.30;;;4.83;;
20970;SDS011;10644;48.834;10.088;2023-06-24T00:50:50;8.03;;;5.03;;
20970;SDS011;10644;48.834;10.088;2023-06-24T00:53:16;9.40;;;5.37;;
20970;SDS011;10644;48.834;10.088;2023-06-24T00:55:42;8.87;;;5.37;;
20970;SDS011;10644;48.834;10.088;2023-06-24T00:58:10;10.50;;;4.87;;
20970;SDS011;10644;48.834;10.088;2023-06-24T01:00:40;5.37;;;4.87;;
20970;SDS011;10644;48.834;10.088;2023-06-24T01:03:07;6.80;;;5.30;;
20970;SDS011;10644;48.834;10.088;2023-06-24T01:05:33;7.03;;;5.03;;
20970;SDS011;10644;48.834;10.088;2023-06-24T01:08:01;10.20;;;4.60;;
20970;SDS011;10644;48.834;10.088;2023-06-24T01:10:27;8.17;;;4.87;;
20970;SDS011;10644;48.834;10.088;2023-06-24T01:12:55;8.03;;;4.60;;
20970;SDS011;10644;48.834;10.088;2023-06-24T01:15:20;6.43;;;5.13;;
20970;SDS011;10644;48.834;10.088;2023-06-24T01:22:50;9.50;;;6.03;;
20970;SDS011;10644;48.834;10.088;2023-06-24T01:30:56;9.20;;;4.87;;
20970;SDS011;10644;48.834;10.088;2023-06-24T01:33:36;13.63;;;5.63;;
20970;SDS011;10644;48.834;10.088;2023-06-24T01:36:08;8.93;;;5.83;;
20970;SDS011;10644;48.834;10.088;2023-06-24T01:38:37;8.10;;;5.60;;
20970;SDS011;10644;48.834;10.088;2023-06-24T01:41:24;9.80;;;5.40;;
20970;SDS011;10644;48.834;10.088;2023-06-24T01:43:58;9.37;;;5.80;;
20970;SDS011;10644;48.834;10.088;2023-06-24T01:46:25;9.77;;;5.50;;
20970;SDS011;10644;48.834;10.088;2023-06-24T01:48:54;10.00;;;5.43;;
20970;SDS011;10644;48.834;10.088;2023-06-24T01:51:23;15.90;;;5.77;;
20970;SDS011;10644;48.834;10.088;2023-06-24T01:53:53;10.03;;;5.50;;
20970;SDS011;10644;48.834;10.088;2023-06-24T01:56:25;14.90;;;6.13;;
20970;SDS011;10644;48.834;10.088;2023-06-24T01:58:52;5.53;;;4.37;;
20970;SDS011;10644;48.834;10.088;2023-06-24T02:01:19;7.30;;;4.80;;
20970;SDS011;10644;48.834;10.088;2023-06-24T02:03:45;9.13;;;4.60;;
20970;SDS011;10644;48.834;10.088;2023-06-24T02:06:13;9.97;;;5.50;;
20970;SDS011;10644;48.834;10.088;2023-06-24T02:08:39;7.00;;;4.90;;
20970;SDS011;10644;48.834;10.088;2023-06-24T02:11:07;5.57;;;4.57;;
20970;SDS011;10644;48.834;10.088;2023-06-24T02:13:34;8.40;;;5.43;;
20970;SDS011;10644;48.834;10.088;2023-06-24T02:16:02;8.23;;;4.80;;
20970;SDS011;10644;48.834;10.088;2023-06-24T02:18:31;5.77;;;4.70;;
20970;SDS011;10644;48.834;10.088;2023-06-24T02:20:59;8.20;;;4.80;;
20970;SDS011;10644;48.834;10.088;2023-06-24T02:23:28;10.70;;;5.37;;
20970;SDS011;10644;48.834;10.088;2023-06-24T02:25:55;5.40;;;4.27;;
20970;SDS011;10644;48.834;10.088;2023-06-24T02:28:22;11.93;;;5.50;;
20970;SDS011;10644;48.834;10.088;2023-06-24T02:30:47;5.50;;;4.60;;
20970;SDS011;10644;48.834;10.088;2023-06-24T02:33:14;9.10;;;5.60;;
20970;SDS011;10644;48.834;10.088;2023-06-24T02:35:40;9.60;;;5.00;;
20970;SDS011;10644;48.834;10.088;2023-06-24T02:38:06;9.13;;;6.00;;
20970;SDS011;10644;48.834;10.088;2023-06-24T02:40:32;11.80;;;5.03;;
20970;SDS011;10644;48.834;10.088;2023-06-24T02:42:58;11.27;;;5.70;;
20970;SDS011;10644;48.834;10.088;2023-06-24T02:45:24;8.33;;;5.00;;
20970;SDS011;10644;48.834;10.088;2023-06-24T02:47:50;6.60;;;5.47;;
20970;SDS011;10644;48.834;10.088;2023-06-24T02:50:16;10.70;;;5.30;;
20970;SDS011;10644;48.834;10.088;2023-06-24T02:52:42;6.63;;;4.97;;
20970;SDS011;10644;48.834;10.088;2023-06-24T02:55:08;6.57;;;4.83;;
20970;SDS011;10644;48.834;10.088;2023-06-24T02:57:34;8.17;;;5.53;;
20970;SDS011;10644;48.834;10.088;2023-06-24T03:00:04;9.37;;;5.77;;
20970;SDS011;10644;48.834;10.088;2023-06-24T03:02:30;9.93;;;5.53;;
20970;SDS011;10644;48.834;10.088;2023-06-24T03:04:57;7.60;;;5.50;;
20970;SDS011;10644;48.834;10.088;2023-06-24T03:07:27;6.83;;;5.03;;
20970;SDS011;10644;48.834;10.088;2023-06-24T03:09:52;9.00;;;5.53;;
20970;SDS011;10644;48.834;10.088;2023-06-24T03:12:18;7.60;;;4.73;;
20970;SDS011;10644;48.834;10.088;2023-06-24T03:14:44;7.40;;;5.17;;
20970;SDS011;10644;48.834;10.088;2023-06-24T03:17:14;8.47;;;5.60;;
20970;SDS011;10644;48.834;10.088;2023-06-24T03:19:41;10.70;;;5.50;;
20970;SDS011;10644;48.834;10.088;2023-06-24T03:22:10;21.50;;;8.00;;
20970;SDS011;10644;48.834;10.088;2023-06-24T03:24:35;23.73;;;7.07;;
20970;SDS011;10644;48.834;10.088;2023-06-24T03:27:01;21.37;;;6.50;;
20970;SDS011;10644;48.834;10.088;2023-06-24T03:29:26;21.67;;;7.80;;
20970;SDS011;10644;48.834;10.088;2023-06-24T03:31:51;21.93;;;7.80;;
20970;SDS011;10644;48.834;10.088;2023-06-24T03:34:17;18.63;;;6.70;;
20970;SDS011;10644;48.834;10.088;2023-06-24T03:36:43;21.33;;;7.17;;
20970;SDS011;10644;48.834;10.088;2023-06-24T03:39:08;26.00;;;7.47;;
20970;SDS011;10644;48.834;10.088;2023-06-24T03:41:34;25.57;;;7.40;;
20970;SDS011;10644;48.834;10.088;2023-06-24T03:43:59;24.63;;;7.50;;
20970;SDS011;10644;48.834;10.088;2023-06-24T03:46:25;23.93;;;7.70;;
20970;SDS011;10644;48.834;10.088;2023-06-24T03:48:50;16.23;;;6.23;;
20970;SDS011;10644;48.834;10.088;2023-06-24T03:51:16;31.53;;;8.43;;
20970;SDS011;10644;48.834;10.088;2023-06-24T03:53:41;28.77;;;7.43;;
20970;SDS011;10644;48.834;10.088;2023-06-24T03:56:07;20.40;;;8.03;;
20970;SDS011;10644;48.834;10.088;2023-06-24T03:58:32;17.33;;;6.70;;
20970;SDS011;10644;48.834;10.088;2023-06-24T04:00:59;13.90;;;6.67;;
20970;SDS011;10644;48.834;10.088;2023-06-24T04:03:25;15.50;;;7.20;;
20970;SDS011;10644;48.834;10.088;2023-06-24T04:05:52;20.27;;;7.13;;
20970;SDS011;10644;48.834;10.088;2023-06-24T04:08:20;20.93;;;7.80;;
20970;SDS011;10644;48.834;10.088;2023-06-24T04:10:47;19.53;;;7.40;;
20970;SDS011;10644;48.834;10.088;2023-06-24T04:13:12;15.27;;;6.50;;
20970;SDS011;10644;48.834;10.088;2023-06-24T04:15:40;17.30;;;6.80;;
20970;SDS011;10644;48.834;10.088;2023-06-24T04:18:05;17.27;;;6.70;;
20970;SDS011;10644;48.834;10.088;2023-06-24T04:20:30;20.73;;;7.47;;
20970;SDS011;10644;48.834;10.088;2023-06-24T04:22:57;21.47;;;7.37;;
20970;SDS011;10644;48.834;10.088;2023-06-24T04:25:23;13.63;;;6.23;;
20970;SDS011;10644;48.834;10.088;2023-06-24T04:27:48;26.60;;;8.40;;
20970;SDS011;10644;48.834;10.088;2023-06-24T04:30:14;17.77;;;6.83;;
20970;SDS011;10644;48.834;10.088;2023-06-24T04:32:39;18.17;;;7.30;;
20970;SDS011;10644;48.834;10.088;2023-06-24T04:35:05;18.53;;;6.87;;
20970;SDS011;10644;48.834;10.088;2023-06-24T04:37:31;15.70;;;6.70;;
20970;SDS011;10644;48.834;10.088;2023-06-24T04:39:56;20.73;;;7.27;;
20970;SDS011;10644;48.834;10.088;2023-06-24T04:42:21;20.70;;;7.50;;
20970;SDS011;10644;48.834;10.088;2023-06-24T04:44:48;20.20;;;7.60;;
20970;SDS011;10644;48.834;10.088;2023-06-24T04:47:16;30.87;;;8.27;;
20970;SDS011;10644;48.834;10.088;2023-06-24T04:49:42;18.13;;;7.27;;
20970;SDS011;10644;48.834;10.088;2023-06-24T04:52:07;29.77;;;7.43;;
20970;SDS011;10644;48.834;10.088;2023-06-24T04:54:33;17.97;;;6.93;;
20970;SDS011;10644;48.834;10.088;2023-06-24T04:56:58;20.07;;;7.17;;
20970;SDS011;10644;48.834;10.088;2023-06-24T04:59:23;26.03;;;7.63;;
20970;SDS011;10644;48.834;10.088;2023-06-24T05:01:49;18.07;;;6.50;;
20970;SDS011;10644;48.834;10.088;2023-06-24T05:04:14;14.87;;;6.97;;
20970;SDS011;10644;48.834;10.088;2023-06-24T05:06:42;27.33;;;8.40;;
20970;SDS011;10644;48.834;10.088;2023-06-24T05:09:08;19.57;;;7.50;;
20970;SDS011;10644;48.834;10.088;2023-06-24T05:11:35;20.63;;;7.23;;
20970;SDS011;10644;48.834;10.088;2023-06-24T05:14:00;22.13;;;7.17;;
20970;SDS011;10644;48.834;10.088;2023-06-24T05:16:26;18.50;;;7.60;;
20970;SDS011;10644;48.834;10.088;2023-06-24T05:18:51;22.43;;;6.70;;
20970;SDS011;10644;48.834;10.088;2023-06-24T05:21:16;27.93;;;8.67;;
20970;SDS011;10644;48.834;10.088;2023-06-24T05:23:42;13.67;;;5.70;;
20970;SDS011;10644;48.834;10.088;2023-06-24T05:26:07;22.30;;;7.27;;
20970;SDS011;10644;48.834;10.088;2023-06-24T05:28:32;18.97;;;6.90;;
20970;SDS011;10644;48.834;10.088;2023-06-24T05:30:58;14.10;;;6.20;;
20970;SDS011;10644;48.834;10.088;2023-06-24T05:33:23;27.73;;;7.60;;
20970;SDS011;10644;48.834;10.088;2023-06-24T05:35:49;17.17;;;6.90;;
20970;SDS011;10644;48.834;10.088;2023-06-24T05:38:15;15.67;;;6.57;;
20970;SDS011;10644;48.834;10.088;2023-06-24T05:40:40;23.83;;;7.63;;
20970;SDS011;10644;48.834;10.088;2023-06-24T05:43:05;15.70;;;7.20;;
20970;SDS011;10644;48.834;10.088;2023-06-24T05:45:31;21.10;;;7.33;;
20970;SDS011;10644;48.834;10.088;2023-06-24T05:47:56;19.53;;;6.73;;
20970;SDS011;10644;48.834;10.088;2023-06-24T05:50:24;18.87;;;7.23;;
20970;SDS011;10644;48.834;10.088;2023-06-24T05:52:49;18.97;;;6.50;;
20970;SDS011;10644;48.834;10.088;2023-06-24T05:55:15;17.70;;;7.00;;
20970;SDS011;10644;48.834;10.088;2023-06-24T05:57:40;19.13;;;6.43;;
20970;SDS011;10644;48.834;10.088;2023-06-24T06:00:05;18.93;;;6.30;;
20970;SDS011;10644;48.834;10.088;2023-06-24T06:02:31;18.80;;;6.73;;
20970;SDS011;10644;48.834;10.088;2023-06-24T06:04:56;14.03;;;6.13;;
20970;SDS011;10644;48.834;10.088;2023-06-24T06:07:22;15.10;;;6.63;;
20970;SDS011;10644;48.834;10.088;2023-06-24T06:09:47;20.10;;;7.57;;
20970;SDS011;10644;48.834;10.088;2023-06-24T06:12:12;14.43;;;6.70;;
20970;SDS011;10644;48.834;10.088;2023-06-24T06:14:38;12.00;;;5.27;;
20970;SDS011;10644;48.834;10.088;2023-06-24T06:17:03;11.23;;;5.87;;
20970;SDS011;10644;48.834;10.088;2023-06-24T06:19:31;13.73;;;6.27;;
20970;SDS011;10644;48.834;10.088;2023-06-24T06:21:56;17.90;;;7.60;;
20970;SDS011;10644;48.834;10.088;2023-06-24T06:24:22;11.07;;;5.97;;
20970;SDS011;10644;48.834;10.088;2023-06-24T06:26:47;17.10;;;7.60;;
20970;SDS011;10644;48.834;10.088;2023-06-24T06:29:12;13.30;;;6.30;;
20970;SDS011;10644;48.834;10.088;2023-06-24T06:31:38;14.63;;;6.50;;
20970;SDS011;10644;48.834;10.088;2023-06-24T06:34:04;16.43;;;6.00;;
20970;SDS011;10644;48.834;10.088;2023-06-24T06:36:29;16.77;;;7.27;;
20970;SDS011;10644;48.834;10.088;2023-06-24T06:38:54;13.80;;;6.10;;
20970;SDS011;10644;48.834;10.088;2023-06-24T06:41:20;20.87;;;6.27;;
20970;SDS011;10644;48.834;10.088;2023-06-24T06:43:50;9.03;;;5.60;;
20970;SDS011;10644;48.834;10.088;2023-06-24T06:46:16;12.20;;;6.00;;
20970;SDS011;10644;48.834;10.088;2023-06-24T06:48:41;11.57;;;6.00;;
20970;SDS011;10644;48.834;10.088;2023-06-24T06:51:06;11.57;;;6.83;;
20970;SDS011;10644;48.834;10.088;2023-06-24T06:53:32;11.83;;;6.30;;
20970;SDS011;10644;48.834;10.088;2023-06-24T06:55:57;15.37;;;7.17;;
20970;SDS011;10644;48.834;10.088;2023-06-24T06:58:23;16.03;;;6.43;;
20970;SDS011;10644;48.834;10.088;2023-06-24T07:00:49;13.30;;;6.10;;
20970;SDS011;10644;48.834;10.088;2023-06-24T07:03:16;10.40;;;6.37;;
20970;SDS011;10644;48.834;10.088;2023-06-24T07:05:42;13.87;;;5.77;;
20970;SDS011;10644;48.834;10.088;2023-06-24T07:08:07;11.20;;;6.10;;
20970;SDS011;10644;48.834;10.088;2023-06-24T07:10:33;11.67;;;6.27;;
20970;SDS011;10644;48.834;10.088;2023-06-24T07:12:58;12.53;;;6.73;;
20970;SDS011;10644;48.834;10.088;2023-06-24T07:15:26;12.50;;;6.63;;
20970;SDS011;10644;48.834;10.088;2023-06-24T07:17:52;15.30;;;6.53;;
20970;SDS011;10644;48.834;10.088;2023-06-24T07:20:19;10.27;;;5.63;;
20970;SDS011;10644;48.834;10.088;2023-06-24T07:22:47;10.63;;;6.13;;
20970;SDS011;10644;48.834;10.088;2023-06-24T07:25:12;14.07;;;6.83;;
20970;SDS011;10644;48.834;10.088;2023-06-24T07:27:38;9.97;;;6.33;;
20970;SDS011;10644;48.834;10.088;2023-06-24T07:30:04;10.33;;;6.47;;
20970;SDS011;10644;48.834;10.088;2023-06-24T07:32:30;12.40;;;6.47;;
20970;SDS011;10644;48.834;10.088;2023-06-24T07:34:56;11.30;;;6.43;;
20970;SDS011;10644;48.834;10.088;2023-06-24T07:37:21;12.50;;;6.83;;
20970;SDS011;10644;48.834;10.088;2023-06-24T07:39:47;19.07;;;8.07;;
20970;SDS011;10644;48.834;10.088;2023-06-24T07:42:12;15.63;;;6.47;;
20970;SDS011;10644;48.834;10.088;2023-06-24T07:44:43;10.60;;;6.33;;
20970;SDS011;10644;48.834;10.088;2023-06-24T07:47:09;16.80;;;7.43;;
20970;SDS011;10644;48.834;10.088;2023-06-24T07:49:34;13.43;;;6.83;;
20970;SDS011;10644;48.834;10.088;2023-06-24T07:52:00;12.70;;;6.30;;
20970;SDS011;10644;48.834;10.088;2023-06-24T07:54:25;11.67;;;6.57;;
20970;SDS011;10644;48.834;10.088;2023-06-24T07:56:50;13.03;;;6.30;;
20970;SDS011;10644;48.834;10.088;2023-06-24T07:59:15;12.83;;;6.90;;
20970;SDS011;10644;48.834;10.088;2023-06-24T08:01:41;16.87;;;9.20;;
20970;SDS011;10644;48.834;10.088;2023-06-24T08:04:06;14.90;;;6.63;;
20970;SDS011;10644;48.834;10.088;2023-06-24T08:06:31;14.43;;;7.50;;
20970;SDS011;10644;48.834;10.088;2023-06-24T08:08:57;12.87;;;6.90;;
20970;SDS011;10644;48.834;10.088;2023-06-24T08:11:22;14.77;;;7.17;;
20970;SDS011;10644;48.834;10.088;2023-06-24T08:13:48;14.57;;;7.27;;
20970;SDS011;10644;48.834;10.088;2023-06-24T08:16:15;10.50;;;6.47;;
20970;SDS011;10644;48.834;10.088;2023-06-24T08:18:42;11.20;;;5.70;;
20970;SDS011;10644;48.834;10.088;2023-06-24T08:21:07;13.53;;;6.97;;
20970;SDS011;10644;48.834;10.088;2023-06-24T08:23:33;12.70;;;6.63;;
20970;SDS011;10644;48.834;10.088;2023-06-24T08:25:58;15.57;;;6.93;;
20970;SDS011;10644;48.834;10.088;2023-06-24T08:28:23;13.20;;;7.13;;
20970;SDS011;10644;48.834;10.088;2023-06-24T08:30:49;10.23;;;6.13;;
20970;SDS011;10644;48.834;10.088;2023-06-24T08:33:16;14.47;;;7.80;;
20970;SDS011;10644;48.834;10.088;2023-06-24T08:35:42;16.83;;;6.93;;
20970;SDS011;10644;48.834;10.088;2023-06-24T08:38:07;11.97;;;6.53;;
20970;SDS011;10644;48.834;10.088;2023-06-24T08:40:32;11.03;;;6.60;;
20970;SDS011;10644;48.834;10.088;2023-06-24T08:42:59;9.97;;;6.57;;
20970;SDS011;10644;48.834;10.088;2023-06-24T08:45:24;9.97;;;6.30;;
20970;SDS011;10644;48.834;10.088;2023-06-24T08:47:49;12.37;;;5.90;;
20970;SDS011;10644;48.834;10.088;2023-06-24T08:50:18;12.17;;;6.10;;
20970;SDS011;10644;48.834;10.088;2023-06-24T08:52:45;13.40;;;5.97;;
20970;SDS011;10644;48.834;10.088;2023-06-24T08:55:16;9.40;;;6.33;;
20970;SDS011;10644;48.834;10.088;2023-06-24T08:57:45;10.53;;;6.10;;
20970;SDS011;10644;48.834;10.088;2023-06-24T09:00:11;7.93;;;5.07;;
20970;SDS011;10644;48.834;10.088;2023-06-24T09:02:37;9.80;;;6.30;;
20970;SDS011;10644;48.834;10.088;2023-06-24T09:05:06;10.17;;;6.20;;
20970;SDS011;10644;48.834;10.088;2023-06-24T09:07:32;9.73;;;6.03;;
20970;SDS011;10644;48.834;10.088;2023-06-24T09:10:00;9.70;;;5.93;;
20970;SDS011;10644;48.834;10.088;2023-06-24T09:12:26;9.50;;;6.27;;
20970;SDS011;10644;48.834;10.088;2023-06-24T09:14:52;13.20;;;6.60;;
20970;SDS011;10644;48.834;10.088;2023-06-24T09:17:18;14.47;;;6.03;;
20970;SDS011;10644;48.834;10.088;2023-06-24T09:19:47;11.93;;;6.80;;
20970;SDS011;10644;48.834;10.088;2023-06-24T09:22:12;9.87;;;5.50;;
20970;SDS011;10644;48.834;10.088;2023-06-24T09:24:42;10.20;;;6.10;;
20970;SDS011;10644;48.834;10.088;2023-06-24T09:27:11;11.07;;;5.40;;
20970;SDS011;10644;48.834;10.088;2023-06-24T09:29:39;11.13;;;6.30;;
20970;SDS011;10644;48.834;10.088;2023-06-24T09:32:05;10.87;;;6.30;;
20970;SDS011;10644;48.834;10.088;2023-06-24T09:34:31;10.03;;;6.23;;
20970;SDS011;10644;48.834;10.088;2023-06-24T09:36:57;10.37;;;5.80;;
20970;SDS011;10644;48.834;10.088;2023-06-24T09:39:24;8.50;;;5.93;;
20970;SDS011;10644;48.834;10.088;2023-06-24T09:41:54;8.07;;;5.40;;
20970;SDS011;10644;48.834;10.088;2023-06-24T09:44:22;12.40;;;6.27;;
20970;SDS011;10644;48.834;10.088;2023-06-24T09:46:48;8.20;;;5.40;;
20970;SDS011;10644;48.834;10.088;2023-06-24T09:49:14;8.37;;;4.87;;
20970;SDS011;10644;48.834;10.088;2023-06-24T09:51:44;7.87;;;5.30;;
20970;SDS011;10644;48.834;10.088;2023-06-24T09:54:11;6.77;;;5.20;;
20970;SDS011;10644;48.834;10.088;2023-06-24T09:56:39;9.20;;;5.60;;
20970;SDS011;10644;48.834;10.088;2023-06-24T09:59:12;7.43;;;5.47;;
20970;SDS011;10644;48.834;10.088;2023-06-24T10:01:41;10.00;;;6.00;;
20970;SDS011;10644;48.834;10.088;2023-06-24T10:04:09;8.60;;;5.43;;
20970;SDS011;10644;48.834;10.088;2023-06-24T10:06:38;10.73;;;6.33;;
20970;SDS011;10644;48.834;10.088;2023-06-24T10:09:03;8.70;;;4.53;;
20970;SDS011;10644;48.834;10.088;2023-06-24T10:11:29;9.03;;;5.40;;
20970;SDS011;10644;48.834;10.088;2023-06-24T10:13:55;9.00;;;5.70;;
20970;SDS011;10644;48.834;10.088;2023-06-24T10:16:20;9.17;;;5.83;;
20970;SDS011;10644;48.834;10.088;2023-06-24T10:18:46;10.60;;;6.40;;
20970;SDS011;10644;48.834;10.088;2023-06-24T10:21:12;7.20;;;4.80;;
20970;SDS011;10644;48.834;10.088;2023-06-24T10:23:40;4.93;;;4.53;;
20970;SDS011;10644;48.834;10.088;2023-06-24T10:26:10;6.60;;;4.93;;
20970;SDS011;10644;48.834;10.088;2023-06-24T10:34:19;6.87;;;5.07;;
20970;SDS011;10644;48.834;10.088;2023-06-24T10:36:54;6.13;;;4.97;;
20970;SDS011;10644;48.834;10.088;2023-06-24T10:42:38;7.47;;;5.37;;
20970;SDS011;10644;48.834;10.088;2023-06-24T10:45:01;8.70;;;5.10;;
20970;SDS011;10644;48.834;10.088;2023-06-24T10:47:39;9.03;;;4.93;;
20970;SDS011;10644;48.834;10.088;2023-06-24T10:50:07;9.97;;;5.23;;
20970;SDS011;10644;48.834;10.088;2023-06-24T10:52:37;7.63;;;5.40;;
20970;SDS011;10644;48.834;10.088;2023-06-24T10:55:15;7.47;;;5.13;;
20970;SDS011;10644;48.834;10.088;2023-06-24T10:57:42;8.23;;;4.90;;
20970;SDS011;10644;48.834;10.088;2023-06-24T11:00:08;12.93;;;5.63;;
20970;SDS011;10644;48.834;10.088;2023-06-24T11:02:34;8.70;;;5.43;;
20970;SDS011;10644;48.834;10.088;2023-06-24T11:05:01;8.13;;;5.27;;
20970;SDS011;10644;48.834;10.088;2023-06-24T11:07:28;6.70;;;5.07;;
20970;SDS011;10644;48.834;10.088;2023-06-24T11:09:58;6.30;;;4.93;;
20970;SDS011;10644;48.834;10.088;2023-06-24T11:12:33;9.93;;;5.13;;
20970;SDS011;10644;48.834;10.088;2023-06-24T11:15:06;8.93;;;5.10;;
20970;SDS011;10644;48.834;10.088;2023-06-24T11:17:35;6.13;;;4.10;;
20970;SDS011;10644;48.834;10.088;2023-06-24T11:20:02;4.83;;;4.30;;
20970;SDS011;10644;48.834;10.088;2023-06-24T11:22:31;6.83;;;4.70;;
20970;SDS011;10644;48.834;10.088;2023-06-24T11:24:57;7.43;;;4.37;;
20970;SDS011;10644;48.834;10.088;2023-06-24T11:27:29;7.40;;;4.40;;
20970;SDS011;10644;48.834;10.088;2023-06-24T11:29:57;7.77;;;5.90;;
20970;SDS011;10644;48.834;10.088;2023-06-24T11:32:24;5.60;;;4.33;;
20970;SDS011;10644;48.834;10.088;2023-06-24T11:34:50;4.83;;;4.03;;
20970;SDS011;10644;48.834;10.088;2023-06-24T11:37:17;6.90;;;4.10;;
20970;SDS011;10644;48.834;10.088;2023-06-24T11:39:55;6.63;;;4.43;;
20970;SDS011;10644;48.834;10.088;2023-06-24T11:42:29;6.53;;;4.30;;
20970;SDS011;10644;48.834;10.088;2023-06-24T11:44:59;5.67;;;4.10;;
20970;SDS011;10644;48.834;10.088;2023-06-24T11:47:26;13.10;;;6.00;;
20970;SDS011;10644;48.834;10.088;2023-06-24T11:49:52;5.73;;;4.47;;
20970;SDS011;10644;48.834;10.088;2023-06-24T11:52:27;5.20;;;4.40;;
20970;SDS011;10644;48.834;10.088;2023-06-24T12:02:52;7.17;;;4.63;;
20970;SDS011;10644;48.834;10.088;2023-06-24T12:05:31;6.00;;;4.47;;
20970;SDS011;10644;48.834;10.088;2023-06-24T12:08:01;13.00;;;3.83;;
20970;SDS011;10644;48.834;10.088;2023-06-24T12:10:28;5.80;;;3.90;;
20970;SDS011;10644;48.834;10.088;2023-06-24T12:12:55;5.43;;;3.77;;
20970;SDS011;10644;48.834;10.088;2023-06-24T12:15:22;8.27;;;5.47;;
20970;SDS011;10644;48.834;10.088;2023-06-24T12:17:47;5.73;;;4.27;;
20970;SDS011;10644;48.834;10.088;2023-06-24T12:20:13;14.50;;;11.80;;
20970;SDS011;10644;48.834;10.088;2023-06-24T12:22:40;4.13;;;3.77;;
20970;SDS011;10644;48.834;10.088;2023-06-24T12:25:05;6.77;;;4.30;;
20970;SDS011;10644;48.834;10.088;2023-06-24T12:27:31;8.40;;;6.17;;
20970;SDS011;10644;48.834;10.088;2023-06-24T12:29:56;5.10;;;4.40;;
20970;SDS011;10644;48.834;10.088;2023-06-24T12:32:22;6.57;;;5.90;;
20970;SDS011;10644;48.834;10.088;2023-06-24T12:34:49;10.73;;;9.63;;
20970;SDS011;10644;48.834;10.088;2023-06-24T12:37:15;6.77;;;5.07;;
20970;SDS011;10644;48.834;10.088;2023-06-24T12:39:43;10.20;;;5.30;;
20970;SDS011;10644;48.834;10.088;2023-06-24T12:42:09;6.83;;;4.33;;
20970;SDS011;10644;48.834;10.088;2023-06-24T12:44:34;9.07;;;5.03;;
20970;SDS011;10644;48.834;10.088;2023-06-24T12:47:00;8.57;;;4.60;;
20970;SDS011;10644;48.834;10.088;2023-06-24T12:49:25;9.57;;;5.10;;
20970;SDS011;10644;48.834;10.088;2023-06-24T12:51:53;7.00;;;4.20;;
20970;SDS011;10644;48.834;10.088;2023-06-24T12:54:20;8.37;;;4.20;;
20970;SDS011;10644;48.834;10.088;2023-06-24T12:56:45;11.30;;;5.40;;
20970;SDS011;10644;48.834;10.088;2023-06-24T12:59:11;6.87;;;4.03;;
20970;SDS011;10644;48.834;10.088;2023-06-24T13:01:36;8.17;;;4.27;;
20970;SDS011;10644;48.834;10.088;2023-06-24T13:04:02;8.80;;;4.60;;
20970;SDS011;10644;48.834;10.088;2023-06-24T13:06:27;7.00;;;3.73;;
20970;SDS011;10644;48.834;10.088;2023-06-24T13:08:55;8.43;;;4.30;;
20970;SDS011;10644;48.834;10.088;2023-06-24T13:11:23;10.60;;;5.07;;
20970;SDS011;10644;48.834;10.088;2023-06-24T13:13:48;9.30;;;4.10;;
20970;SDS011;10644;48.834;10.088;2023-06-24T13:16:13;8.10;;;3.97;;
20970;SDS011;10644;48.834;10.088;2023-06-24T13:18:39;7.60;;;4.30;;
20970;SDS011;10644;48.834;10.088;2023-06-24T13:21:04;11.00;;;4.30;;
20970;SDS011;10644;48.834;10.088;2023-06-24T13:23:29;8.37;;;4.40;;
20970;SDS011;10644;48.834;10.088;2023-06-24T13:25:54;5.50;;;3.80;;
20970;SDS011;10644;48.834;10.088;2023-06-24T13:28:20;8.10;;;4.37;;
20970;SDS011;10644;48.834;10.088;2023-06-24T13:30:47;7.13;;;4.20;;
20970;SDS011;10644;48.834;10.088;2023-06-24T13:33:13;8.53;;;4.57;;
20970;SDS011;10644;48.834;10.088;2023-06-24T13:35:38;7.30;;;4.13;;
20970;SDS011;10644;48.834;10.088;2023-06-24T13:38:03;7.07;;;4.30;;
20970;SDS011;10644;48.834;10.088;2023-06-24T13:40:29;11.43;;;4.53;;
20970;SDS011;10644;48.834;10.088;2023-06-24T13:42:55;7.63;;;4.03;;
20970;SDS011;10644;48.834;10.088;2023-06-24T13:45:20;7.30;;;4.07;;
20970;SDS011;10644;48.834;10.088;2023-06-24T13:47:46;7.07;;;4.40;;
20970;SDS011;10644;48.834;10.088;2023-06-24T13:50:13;10.43;;;4.97;;
20970;SDS011;10644;48.834;10.088;2023-06-24T13:52:39;9.90;;;4.40;;
20970;SDS011;10644;48.834;10.088;2023-06-24T13:55:06;9.80;;;4.67;;
20970;SDS011;10644;48.834;10.088;2023-06-24T13:57:32;9.43;;;5.10;;
20970;SDS011;10644;48.834;10.088;2023-06-24T13:59:57;6.90;;;3.83;;
20970;SDS011;10644;48.834;10.088;2023-06-24T14:02:23;8.63;;;4.60;;
20970;SDS011;10644;48.834;10.088;2023-06-24T14:04:48;7.47;;;4.23;;
20970;SDS011;10644;48.834;10.088;2023-06-24T14:07:14;10.90;;;4.83;;
20970;SDS011;10644;48.834;10.088;2023-06-24T14:09:39;9.23;;;4.47;;
20970;SDS011;10644;48.834;10.088;2023-06-24T14:12:05;9.23;;;4.10;;
20970;SDS011;10644;48.834;10.088;2023-06-24T14:14:33;6.40;;;4.13;;
20970;SDS011;10644;48.834;10.088;2023-06-24T14:16:59;5.77;;;3.80;;
20970;SDS011;10644;48.834;10.088;2023-06-24T14:19:25;11.83;;;5.70;;
20970;SDS011;10644;48.834;10.088;2023-06-24T14:21:50;8.97;;;4.73;;
20970;SDS011;10644;48.834;10.088;2023-06-24T14:24:15;11.13;;;5.03;;
20970;SDS011;10644;48.834;10.088;2023-06-24T14:26:41;12.70;;;5.30;;
20970;SDS011;10644;48.834;10.088;2023-06-24T14:29:06;11.67;;;5.07;;
20970;SDS011;10644;48.834;10.088;2023-06-24T14:31:32;11.80;;;5.33;;
20970;SDS011;10644;48.834;10.088;2023-06-24T14:33:57;13.67;;;4.93;;
20970;SDS011;10644;48.834;10.088;2023-06-24T14:36:22;10.80;;;5.53;;
20970;SDS011;10644;48.834;10.088;2023-06-24T14:38:48;11.00;;;5.77;;
20970;SDS011;10644;48.834;10.088;2023-06-24T14:41:13;8.93;;;5.00;;
20970;SDS011;10644;48.834;10.088;2023-06-24T14:43:38;12.13;;;5.07;;
20970;SDS011;10644;48.834;10.088;2023-06-24T14:46:06;12.50;;;5.53;;
20970;SDS011;10644;48.834;10.088;2023-06-24T14:48:31;11.60;;;5.17;;
20970;SDS011;10644;48.834;10.088;2023-06-24T14:50:57;6.37;;;4.40;;
20970;SDS011;10644;48.834;10.088;2023-06-24T14:53:22;12.70;;;4.93;;